sensor_id;sensor_type;location;lat;lon;timestamp;temperature;humidity
55083;DHT22;40978;52.850;6.506;2022-09-09T00:09:31;13.30;99.90
55083;DHT22;40978;52.850;6.506;2022-09-09T00:12:17;13.30;99.90
55083;DHT22;40978;52.850;6.506;2022-09-09T00:15:05;13.20;99.90
55083;DHT22;40978;52.850;6.506;2022-09-09T00:17:39;13.20;99.90
55083;DHT22;40978;52.850;6.506;2022-09-09T00:25:37;13.20;99.90
55083;DHT22;40978;52.850;6.506;2022-09-09T00:28:15;13.10;99.90
55083;DHT22;40978;52.850;6.506;2022-09-09T00:30:43;13.10;99.90
55083;DHT22;40978;52.850;6.506;2022-09-09T00:33:13;13.10;99.90
55083;DHT22;40978;52.850;6.506;2022-09-09T00:35:52;13.10;99.90
55083;DHT22;40978;52.850;6.506;2022-09-09T00:38:37;13.10;99.90
55083;DHT22;40978;52.850;6.506;2022-09-09T00:43:56;13.10;99.90
55083;DHT22;40978;52.850;6.506;2022-09-09T00:57:30;13.10;99.90
55083;DHT22;40978;52.850;6.506;2022-09-09T01:00:16;13.00;99.90
55083;DHT22;40978;52.850;6.506;2022-09-09T01:08:45;13.10;99.90
55083;DHT22;40978;52.850;6.506;2022-09-09T01:11:32;13.20;99.90
55083;DHT22;40978;52.850;6.506;2022-09-09T01:14:22;13.20;99.90
55083;DHT22;40978;52.850;6.506;2022-09-09T01:16:58;13.20;99.90
55083;DHT22;40978;52.850;6.506;2022-09-09T01:19:37;13.30;99.90
55083;DHT22;40978;52.850;6.506;2022-09-09T01:28:12;13.40;99.90
55083;DHT22;40978;52.850;6.506;2022-09-09T01:30:40;13.50;99.90
55083;DHT22;40978;52.850;6.506;2022-09-09T01:33:15;13.50;99.90
55083;DHT22;40978;52.850;6.506;2022-09-09T01:35:49;13.60;99.90
55083;DHT22;40978;52.850;6.506;2022-09-09T01:38:20;13.60;99.90
55083;DHT22;40978;52.850;6.506;2022-09-09T01:40:47;13.70;99.90
55083;DHT22;40978;52.850;6.506;2022-09-09T01:43:13;13.70;99.90
55083;DHT22;40978;52.850;6.506;2022-09-09T01:45:41;13.80;99.90
55083;DHT22;40978;52.850;6.506;2022-09-09T01:48:08;13.80;99.90
55083;DHT22;40978;52.850;6.506;2022-09-09T01:50:33;13.90;99.90
55083;DHT22;40978;52.850;6.506;2022-09-09T01:53:00;13.90;99.90
55083;DHT22;40978;52.850;6.506;2022-09-09T01:55:39;14.00;99.90
55083;DHT22;40978;52.850;6.506;2022-09-09T02:01:09;14.00;99.90
55083;DHT22;40978;52.850;6.506;2022-09-09T02:03:44;14.10;99.90
55083;DHT22;40978;52.850;6.506;2022-09-09T02:06:28;14.10;99.90
55083;DHT22;40978;52.850;6.506;2022-09-09T02:08:56;14.10;99.90
55083;DHT22;40978;52.850;6.506;2022-09-09T02:11:28;14.20;99.90
55083;DHT22;40978;52.850;6.506;2022-09-09T02:14:01;14.20;99.90
55083;DHT22;40978;52.850;6.506;2022-09-09T02:16:40;14.20;99.90
55083;DHT22;40978;52.850;6.506;2022-09-09T02:19:27;14.20;99.90
55083;DHT22;40978;52.850;6.506;2022-09-09T02:21:55;14.20;99.90
55083;DHT22;40978;52.850;6.506;2022-09-09T02:24:22;14.20;99.90
55083;DHT22;40978;52.850;6.506;2022-09-09T02:26:51;14.20;99.90
55083;DHT22;40978;52.850;6.506;2022-09-09T02:29:25;14.30;99.90
55083;DHT22;40978;52.850;6.506;2022-09-09T02:31:53;14.30;99.90
55083;DHT22;40978;52.850;6.506;2022-09-09T02:34:23;14.30;99.90
55083;DHT22;40978;52.850;6.506;2022-09-09T02:36:53;14.30;99.90
55083;DHT22;40978;52.850;6.506;2022-09-09T02:39:20;14.30;99.90
55083;DHT22;40978;52.850;6.506;2022-09-09T02:41:46;14.30;99.90
55083;DHT22;40978;52.850;6.506;2022-09-09T02:44:15;14.40;99.90
55083;DHT22;40978;52.850;6.506;2022-09-09T02:49:37;14.40;99.90
55083;DHT22;40978;52.850;6.506;2022-09-09T02:52:07;14.40;99.90
55083;DHT22;40978;52.850;6.506;2022-09-09T02:54:35;14.40;99.90
55083;DHT22;40978;52.850;6.506;2022-09-09T02:57:10;14.40;99.90
55083;DHT22;40978;52.850;6.506;2022-09-09T02:59:37;14.40;99.90
55083;DHT22;40978;52.850;6.506;2022-09-09T03:02:03;14.40;99.90
55083;DHT22;40978;52.850;6.506;2022-09-09T03:04:29;14.40;99.90
55083;DHT22;40978;52.850;6.506;2022-09-09T03:06:57;14.40;99.90
55083;DHT22;40978;52.850;6.506;2022-09-09T03:09:23;14.40;99.90
55083;DHT22;40978;52.850;6.506;2022-09-09T03:11:49;14.40;99.90
55083;DHT22;40978;52.850;6.506;2022-09-09T03:14:15;14.40;99.90
55083;DHT22;40978;52.850;6.506;2022-09-09T03:16:41;14.30;99.90
55083;DHT22;40978;52.850;6.506;2022-09-09T03:19:08;14.40;99.90
55083;DHT22;40978;52.850;6.506;2022-09-09T03:21:34;14.30;99.90
55083;DHT22;40978;52.850;6.506;2022-09-09T03:24:01;14.40;99.90
55083;DHT22;40978;52.850;6.506;2022-09-09T03:26:29;14.40;99.90
55083;DHT22;40978;52.850;6.506;2022-09-09T03:28:56;14.30;99.90
55083;DHT22;40978;52.850;6.506;2022-09-09T03:31:22;14.30;99.90
55083;DHT22;40978;52.850;6.506;2022-09-09T03:33:47;14.30;99.90
55083;DHT22;40978;52.850;6.506;2022-09-09T03:36:14;14.30;99.90
55083;DHT22;40978;52.850;6.506;2022-09-09T03:38:40;14.30;99.90
55083;DHT22;40978;52.850;6.506;2022-09-09T03:41:06;14.30;99.90
55083;DHT22;40978;52.850;6.506;2022-09-09T03:43:33;14.30;99.90
55083;DHT22;40978;52.850;6.506;2022-09-09T03:46:00;14.20;99.90
55083;DHT22;40978;52.850;6.506;2022-09-09T03:48:26;14.30;99.90
55083;DHT22;40978;52.850;6.506;2022-09-09T03:50:54;14.20;99.90
55083;DHT22;40978;52.850;6.506;2022-09-09T03:53:23;14.30;99.90
55083;DHT22;40978;52.850;6.506;2022-09-09T03:55:52;14.30;99.90
55083;DHT22;40978;52.850;6.506;2022-09-09T03:58:23;14.20;99.90
55083;DHT22;40978;52.850;6.506;2022-09-09T04:00:54;14.30;99.90
55083;DHT22;40978;52.850;6.506;2022-09-09T04:03:20;14.30;99.90
55083;DHT22;40978;52.850;6.506;2022-09-09T04:05:49;14.30;99.90
55083;DHT22;40978;52.850;6.506;2022-09-09T04:08:14;14.30;99.90
55083;DHT22;40978;52.850;6.506;2022-09-09T04:10:40;14.30;99.90
55083;DHT22;40978;52.850;6.506;2022-09-09T04:13:07;14.30;99.90
55083;DHT22;40978;52.850;6.506;2022-09-09T04:15:33;14.30;99.90
55083;DHT22;40978;52.850;6.506;2022-09-09T04:18:01;14.30;99.90
55083;DHT22;40978;52.850;6.506;2022-09-09T04:20:26;14.30;99.90
55083;DHT22;40978;52.850;6.506;2022-09-09T04:22:52;14.20;99.90
55083;DHT22;40978;52.850;6.506;2022-09-09T04:25:17;14.30;99.90
55083;DHT22;40978;52.850;6.506;2022-09-09T04:27:43;14.30;99.90
55083;DHT22;40978;52.850;6.506;2022-09-09T04:30:10;14.20;99.90
55083;DHT22;40978;52.850;6.506;2022-09-09T04:32:35;14.30;99.90
55083;DHT22;40978;52.850;6.506;2022-09-09T04:35:02;14.20;99.90
55083;DHT22;40978;52.850;6.506;2022-09-09T04:37:28;14.20;99.90
55083;DHT22;40978;52.850;6.506;2022-09-09T04:39:54;14.20;99.90
55083;DHT22;40978;52.850;6.506;2022-09-09T04:42:19;14.20;99.90
55083;DHT22;40978;52.850;6.506;2022-09-09T04:44:45;14.10;99.90
55083;DHT22;40978;52.850;6.506;2022-09-09T04:47:11;14.10;99.90
55083;DHT22;40978;52.850;6.506;2022-09-09T04:49:37;14.10;99.90
55083;DHT22;40978;52.850;6.506;2022-09-09T04:52:03;14.10;99.90
55083;DHT22;40978;52.850;6.506;2022-09-09T04:54:29;14.10;99.90
55083;DHT22;40978;52.850;6.506;2022-09-09T04:56:55;14.00;99.90
55083;DHT22;40978;52.850;6.506;2022-09-09T04:59:21;14.00;99.90
55083;DHT22;40978;52.850;6.506;2022-09-09T05:01:47;14.00;99.90
55083;DHT22;40978;52.850;6.506;2022-09-09T05:04:13;14.00;99.90
55083;DHT22;40978;52.850;6.506;2022-09-09T05:06:42;14.00;99.90
55083;DHT22;40978;52.850;6.506;2022-09-09T05:09:08;14.00;99.90
55083;DHT22;40978;52.850;6.506;2022-09-09T05:11:34;13.90;99.90
55083;DHT22;40978;52.850;6.506;2022-09-09T05:14:04;13.90;99.90
55083;DHT22;40978;52.850;6.506;2022-09-09T05:16:30;13.90;99.90
55083;DHT22;40978;52.850;6.506;2022-09-09T05:18:56;13.90;99.90
55083;DHT22;40978;52.850;6.506;2022-09-09T05:21:23;13.80;99.90
55083;DHT22;40978;52.850;6.506;2022-09-09T05:23:51;13.90;99.90
55083;DHT22;40978;52.850;6.506;2022-09-09T05:26:19;13.80;99.90
55083;DHT22;40978;52.850;6.506;2022-09-09T05:28:45;13.80;99.90
55083;DHT22;40978;52.850;6.506;2022-09-09T05:31:12;13.90;99.90
55083;DHT22;40978;52.850;6.506;2022-09-09T05:33:43;13.70;99.90
55083;DHT22;40978;52.850;6.506;2022-09-09T05:36:16;13.80;99.90
55083;DHT22;40978;52.850;6.506;2022-09-09T05:38:43;13.80;99.90
55083;DHT22;40978;52.850;6.506;2022-09-09T05:41:10;13.80;99.90
55083;DHT22;40978;52.850;6.506;2022-09-09T05:43:37;13.80;99.90
55083;DHT22;40978;52.850;6.506;2022-09-09T05:48:33;13.80;99.90
55083;DHT22;40978;52.850;6.506;2022-09-09T05:51:00;13.90;99.90
55083;DHT22;40978;52.850;6.506;2022-09-09T05:53:26;13.90;99.90
55083;DHT22;40978;52.850;6.506;2022-09-09T05:56:03;13.90;99.90
55083;DHT22;40978;52.850;6.506;2022-09-09T05:58:33;14.00;99.90
55083;DHT22;40978;52.850;6.506;2022-09-09T06:01:13;14.10;99.90
55083;DHT22;40978;52.850;6.506;2022-09-09T06:03:41;14.10;99.90
55083;DHT22;40978;52.850;6.506;2022-09-09T06:06:09;14.20;99.90
55083;DHT22;40978;52.850;6.506;2022-09-09T06:08:38;14.20;99.90
55083;DHT22;40978;52.850;6.506;2022-09-09T06:11:08;14.20;99.90
55083;DHT22;40978;52.850;6.506;2022-09-09T06:13:34;14.20;99.90
55083;DHT22;40978;52.850;6.506;2022-09-09T06:16:02;14.20;99.90
55083;DHT22;40978;52.850;6.506;2022-09-09T06:18:29;14.30;99.90
55083;DHT22;40978;52.850;6.506;2022-09-09T06:21:06;14.30;99.90
55083;DHT22;40978;52.850;6.506;2022-09-09T06:23:33;14.30;99.90
55083;DHT22;40978;52.850;6.506;2022-09-09T06:26:11;14.30;99.90
55083;DHT22;40978;52.850;6.506;2022-09-09T06:28:38;14.30;99.90
55083;DHT22;40978;52.850;6.506;2022-09-09T06:31:06;14.40;99.90
55083;DHT22;40978;52.850;6.506;2022-09-09T06:33:41;14.50;99.90
55083;DHT22;40978;52.850;6.506;2022-09-09T06:36:07;14.50;99.90
55083;DHT22;40978;52.850;6.506;2022-09-09T06:38:35;14.40;99.90
55083;DHT22;40978;52.850;6.506;2022-09-09T06:41:01;14.50;99.90
55083;DHT22;40978;52.850;6.506;2022-09-09T06:43:27;14.50;99.90
55083;DHT22;40978;52.850;6.506;2022-09-09T06:45:58;14.50;99.90
55083;DHT22;40978;52.850;6.506;2022-09-09T06:48:25;14.60;99.90
55083;DHT22;40978;52.850;6.506;2022-09-09T06:51:11;14.60;99.90
55083;DHT22;40978;52.850;6.506;2022-09-09T06:53:39;14.70;99.90
55083;DHT22;40978;52.850;6.506;2022-09-09T06:58:44;14.90;99.90
55083;DHT22;40978;52.850;6.506;2022-09-09T07:01:12;15.00;99.90
55083;DHT22;40978;52.850;6.506;2022-09-09T07:03:38;15.00;99.90
55083;DHT22;40978;52.850;6.506;2022-09-09T07:06:05;15.20;99.90
55083;DHT22;40978;52.850;6.506;2022-09-09T07:08:33;15.30;99.90
55083;DHT22;40978;52.850;6.506;2022-09-09T07:11:06;15.40;99.90
55083;DHT22;40978;52.850;6.506;2022-09-09T07:13:33;15.50;99.90
55083;DHT22;40978;52.850;6.506;2022-09-09T07:16:10;15.70;99.90
55083;DHT22;40978;52.850;6.506;2022-09-09T07:18:36;15.80;99.90
55083;DHT22;40978;52.850;6.506;2022-09-09T07:21:04;15.90;99.90
55083;DHT22;40978;52.850;6.506;2022-09-09T07:23:30;16.10;99.90
55083;DHT22;40978;52.850;6.506;2022-09-09T07:25:57;16.30;99.90
55083;DHT22;40978;52.850;6.506;2022-09-09T07:28:23;16.30;99.90
55083;DHT22;40978;52.850;6.506;2022-09-09T07:30:57;16.40;99.90
55083;DHT22;40978;52.850;6.506;2022-09-09T07:33:24;16.50;99.90
55083;DHT22;40978;52.850;6.506;2022-09-09T07:35:50;16.50;99.90
55083;DHT22;40978;52.850;6.506;2022-09-09T07:38:15;16.60;99.90
55083;DHT22;40978;52.850;6.506;2022-09-09T07:40:42;16.80;99.90
55083;DHT22;40978;52.850;6.506;2022-09-09T07:43:07;16.90;99.90
55083;DHT22;40978;52.850;6.506;2022-09-09T07:45:34;17.20;99.90
55083;DHT22;40978;52.850;6.506;2022-09-09T07:48:02;17.30;99.90
55083;DHT22;40978;52.850;6.506;2022-09-09T07:50:28;17.60;99.90
55083;DHT22;40978;52.850;6.506;2022-09-09T07:52:53;17.70;99.90
55083;DHT22;40978;52.850;6.506;2022-09-09T07:55:20;18.00;99.90
55083;DHT22;40978;52.850;6.506;2022-09-09T07:57:46;18.30;99.90
55083;DHT22;40978;52.850;6.506;2022-09-09T08:00:13;18.70;99.90
55083;DHT22;40978;52.850;6.506;2022-09-09T08:02:40;18.90;99.90
55083;DHT22;40978;52.850;6.506;2022-09-09T08:05:05;19.40;99.90
55083;DHT22;40978;52.850;6.506;2022-09-09T08:07:31;19.90;99.90
55083;DHT22;40978;52.850;6.506;2022-09-09T08:09:57;20.50;99.90
55083;DHT22;40978;52.850;6.506;2022-09-09T08:12:23;20.50;99.90
55083;DHT22;40978;52.850;6.506;2022-09-09T08:14:49;20.50;99.90
55083;DHT22;40978;52.850;6.506;2022-09-09T08:17:15;20.10;99.90
55083;DHT22;40978;52.850;6.506;2022-09-09T08:19:40;19.60;99.90
55083;DHT22;40978;52.850;6.506;2022-09-09T08:22:06;19.20;99.90
55083;DHT22;40978;52.850;6.506;2022-09-09T08:24:33;18.80;99.90
55083;DHT22;40978;52.850;6.506;2022-09-09T08:26:58;18.60;99.90
55083;DHT22;40978;52.850;6.506;2022-09-09T08:29:25;18.30;99.90
55083;DHT22;40978;52.850;6.506;2022-09-09T08:31:55;18.20;99.90
55083;DHT22;40978;52.850;6.506;2022-09-09T08:34:23;18.50;99.90
55083;DHT22;40978;52.850;6.506;2022-09-09T08:36:50;18.80;99.90
55083;DHT22;40978;52.850;6.506;2022-09-09T08:39:18;19.00;99.90
55083;DHT22;40978;52.850;6.506;2022-09-09T08:50:38;18.60;99.90
55083;DHT22;40978;52.850;6.506;2022-09-09T08:53:19;18.50;99.90
55083;DHT22;40978;52.850;6.506;2022-09-09T08:55:53;18.70;99.90
55083;DHT22;40978;52.850;6.506;2022-09-09T08:58:21;18.60;99.90
55083;DHT22;40978;52.850;6.506;2022-09-09T09:01:12;18.50;99.90
55083;DHT22;40978;52.850;6.506;2022-09-09T09:06:54;19.30;99.90
55083;DHT22;40978;52.850;6.506;2022-09-09T09:09:49;19.50;99.90
55083;DHT22;40978;52.850;6.506;2022-09-09T09:12:21;19.40;99.90
55083;DHT22;40978;52.850;6.506;2022-09-09T09:14:49;19.20;99.90
55083;DHT22;40978;52.850;6.506;2022-09-09T09:17:18;19.00;99.90
55083;DHT22;40978;52.850;6.506;2022-09-09T09:19:46;18.70;99.90
55083;DHT22;40978;52.850;6.506;2022-09-09T09:22:24;18.60;99.90
55083;DHT22;40978;52.850;6.506;2022-09-09T09:24:56;18.90;99.90
55083;DHT22;40978;52.850;6.506;2022-09-09T09:27:34;19.30;99.90
55083;DHT22;40978;52.850;6.506;2022-09-09T09:30:22;19.70;99.90
55083;DHT22;40978;52.850;6.506;2022-09-09T09:33:10;19.70;99.90
55083;DHT22;40978;52.850;6.506;2022-09-09T09:35:36;19.90;99.90
55083;DHT22;40978;52.850;6.506;2022-09-09T09:38:16;20.00;99.90
55083;DHT22;40978;52.850;6.506;2022-09-09T09:41:08;20.00;99.90
55083;DHT22;40978;52.850;6.506;2022-09-09T09:43:35;19.80;99.90
55083;DHT22;40978;52.850;6.506;2022-09-09T09:46:04;19.60;99.90
55083;DHT22;40978;52.850;6.506;2022-09-09T09:48:29;19.30;99.90
55083;DHT22;40978;52.850;6.506;2022-09-09T09:51:03;19.20;99.90
55083;DHT22;40978;52.850;6.506;2022-09-09T09:53:34;19.10;99.90
55083;DHT22;40978;52.850;6.506;2022-09-09T09:58:31;20.10;99.90
55083;DHT22;40978;52.850;6.506;2022-09-09T10:01:00;20.70;99.90
55083;DHT22;40978;52.850;6.506;2022-09-09T10:03:28;20.80;99.90
55083;DHT22;40978;52.850;6.506;2022-09-09T10:05:55;20.70;99.90
55083;DHT22;40978;52.850;6.506;2022-09-09T10:08:23;20.80;99.90
55083;DHT22;40978;52.850;6.506;2022-09-09T10:26:55;21.30;99.90
55083;DHT22;40978;52.850;6.506;2022-09-09T10:32:41;20.80;99.90
55083;DHT22;40978;52.850;6.506;2022-09-09T10:35:29;21.30;99.90
55083;DHT22;40978;52.850;6.506;2022-09-09T10:38:16;21.60;99.90
55083;DHT22;40978;52.850;6.506;2022-09-09T10:40:44;22.00;99.90
55083;DHT22;40978;52.850;6.506;2022-09-09T10:46:23;22.80;99.90
55083;DHT22;40978;52.850;6.506;2022-09-09T10:49:23;22.60;99.90
55083;DHT22;40978;52.850;6.506;2022-09-09T10:55:09;21.80;99.90
55083;DHT22;40978;52.850;6.506;2022-09-09T10:57:52;21.60;99.90
55083;DHT22;40978;52.850;6.506;2022-09-09T11:00:22;21.40;99.90
55083;DHT22;40978;52.850;6.506;2022-09-09T11:03:00;21.10;99.90
55083;DHT22;40978;52.850;6.506;2022-09-09T11:08:21;20.50;99.90
55083;DHT22;40978;52.850;6.506;2022-09-09T11:13:46;20.10;99.90
55083;DHT22;40978;52.850;6.506;2022-09-09T11:19:07;20.40;99.90
55083;DHT22;40978;52.850;6.506;2022-09-09T11:21:46;20.40;99.90
55083;DHT22;40978;52.850;6.506;2022-09-09T11:24:40;20.50;99.90
55083;DHT22;40978;52.850;6.506;2022-09-09T11:27:20;20.50;99.90
55083;DHT22;40978;52.850;6.506;2022-09-09T11:30:11;20.40;99.90
55083;DHT22;40978;52.850;6.506;2022-09-09T11:36:21;20.00;99.90
55083;DHT22;40978;52.850;6.506;2022-09-09T11:38:46;19.80;99.90
55083;DHT22;40978;52.850;6.506;2022-09-09T11:41:14;19.60;99.90
55083;DHT22;40978;52.850;6.506;2022-09-09T11:43:49;19.50;99.90
55083;DHT22;40978;52.850;6.506;2022-09-09T11:46:19;19.40;99.90
55083;DHT22;40978;52.850;6.506;2022-09-09T11:48:58;19.30;99.90
55083;DHT22;40978;52.850;6.506;2022-09-09T11:59:02;19.90;99.90
55083;DHT22;40978;52.850;6.506;2022-09-09T12:01:41;20.60;99.90
55083;DHT22;40978;52.850;6.506;2022-09-09T12:04:33;21.20;99.90
55083;DHT22;40978;52.850;6.506;2022-09-09T12:09:45;21.70;99.90
55083;DHT22;40978;52.850;6.506;2022-09-09T12:17:25;22.40;99.90
55083;DHT22;40978;52.850;6.506;2022-09-09T12:20:23;22.40;99.90
55083;DHT22;40978;52.850;6.506;2022-09-09T12:31:44;21.00;99.90
55083;DHT22;40978;52.850;6.506;2022-09-09T12:37:14;20.70;99.90
55083;DHT22;40978;52.850;6.506;2022-09-09T12:40:14;21.10;99.90
55083;DHT22;40978;52.850;6.506;2022-09-09T12:42:32;21.90;99.90
55083;DHT22;40978;52.850;6.506;2022-09-09T12:45:00;22.30;99.90
55083;DHT22;40978;52.850;6.506;2022-09-09T12:49:56;21.40;99.90
55083;DHT22;40978;52.850;6.506;2022-09-09T12:52:31;21.20;99.90
55083;DHT22;40978;52.850;6.506;2022-09-09T12:55:00;21.00;99.90
55083;DHT22;40978;52.850;6.506;2022-09-09T12:57:33;21.40;99.90
55083;DHT22;40978;52.850;6.506;2022-09-09T13:00:18;22.30;99.90
55083;DHT22;40978;52.850;6.506;2022-09-09T13:02:50;23.40;99.90
55083;DHT22;40978;52.850;6.506;2022-09-09T13:05:28;24.40;99.90
55083;DHT22;40978;52.850;6.506;2022-09-09T13:08:06;25.10;99.90
55083;DHT22;40978;52.850;6.506;2022-09-09T13:10:39;25.50;99.90
55083;DHT22;40978;52.850;6.506;2022-09-09T13:13:17;25.30;99.90
55083;DHT22;40978;52.850;6.506;2022-09-09T13:15:54;24.40;99.90
55083;DHT22;40978;52.850;6.506;2022-09-09T13:18:40;23.40;99.90
55083;DHT22;40978;52.850;6.506;2022-09-09T13:21:07;22.70;99.90
55083;DHT22;40978;52.850;6.506;2022-09-09T13:23:35;22.20;99.90
55083;DHT22;40978;52.850;6.506;2022-09-09T13:28:30;21.70;99.90
55083;DHT22;40978;52.850;6.506;2022-09-09T13:31:18;21.50;99.90
55083;DHT22;40978;52.850;6.506;2022-09-09T13:33:45;21.50;99.90
55083;DHT22;40978;52.850;6.506;2022-09-09T13:36:12;21.50;99.90
55083;DHT22;40978;52.850;6.506;2022-09-09T13:41:31;21.50;99.90
55083;DHT22;40978;52.850;6.506;2022-09-09T13:43:58;21.30;99.90
55083;DHT22;40978;52.850;6.506;2022-09-09T13:49:22;20.60;99.90
55083;DHT22;40978;52.850;6.506;2022-09-09T13:51:50;20.10;99.90
55083;DHT22;40978;52.850;6.506;2022-09-09T13:54:20;20.00;99.90
55083;DHT22;40978;52.850;6.506;2022-09-09T13:56:47;19.90;99.90
55083;DHT22;40978;52.850;6.506;2022-09-09T13:59:15;20.10;99.90
55083;DHT22;40978;52.850;6.506;2022-09-09T14:01:41;20.30;99.90
55083;DHT22;40978;52.850;6.506;2022-09-09T14:04:08;20.40;99.90
55083;DHT22;40978;52.850;6.506;2022-09-09T14:06:35;20.50;99.90
55083;DHT22;40978;52.850;6.506;2022-09-09T14:09:11;20.40;99.90
55083;DHT22;40978;52.850;6.506;2022-09-09T14:11:37;20.40;99.90
55083;DHT22;40978;52.850;6.506;2022-09-09T14:14:03;20.30;99.90
55083;DHT22;40978;52.850;6.506;2022-09-09T14:16:29;20.40;99.90
55083;DHT22;40978;52.850;6.506;2022-09-09T14:18:55;20.50;99.90
55083;DHT22;40978;52.850;6.506;2022-09-09T14:21:25;20.60;99.90
55083;DHT22;40978;52.850;6.506;2022-09-09T14:23:51;20.70;99.90
55083;DHT22;40978;52.850;6.506;2022-09-09T14:26:21;20.60;99.90
55083;DHT22;40978;52.850;6.506;2022-09-09T14:28:48;20.40;99.90
55083;DHT22;40978;52.850;6.506;2022-09-09T14:31:14;20.20;99.90
55083;DHT22;40978;52.850;6.506;2022-09-09T14:33:40;20.00;99.90
55083;DHT22;40978;52.850;6.506;2022-09-09T14:36:06;19.90;99.90
55083;DHT22;40978;52.850;6.506;2022-09-09T14:38:37;19.80;99.90
55083;DHT22;40978;52.850;6.506;2022-09-09T14:41:15;19.90;99.90
55083;DHT22;40978;52.850;6.506;2022-09-09T14:43:48;19.90;99.90
55083;DHT22;40978;52.850;6.506;2022-09-09T14:46:19;19.90;99.90
55083;DHT22;40978;52.850;6.506;2022-09-09T14:48:50;19.80;99.90
55083;DHT22;40978;52.850;6.506;2022-09-09T14:51:23;19.60;99.90
55083;DHT22;40978;52.850;6.506;2022-09-09T14:53:57;19.50;99.90
55083;DHT22;40978;52.850;6.506;2022-09-09T14:56:26;19.50;99.90
55083;DHT22;40978;52.850;6.506;2022-09-09T14:58:56;19.40;99.90
55083;DHT22;40978;52.850;6.506;2022-09-09T15:01:23;19.40;99.90
55083;DHT22;40978;52.850;6.506;2022-09-09T15:03:51;19.40;99.90
55083;DHT22;40978;52.850;6.506;2022-09-09T15:06:18;19.50;99.90
55083;DHT22;40978;52.850;6.506;2022-09-09T15:08:45;19.40;99.90
55083;DHT22;40978;52.850;6.506;2022-09-09T15:11:13;19.40;99.90
55083;DHT22;40978;52.850;6.506;2022-09-09T15:13:40;19.40;99.90
55083;DHT22;40978;52.850;6.506;2022-09-09T15:16:11;19.30;99.90
55083;DHT22;40978;52.850;6.506;2022-09-09T15:18:38;19.30;99.90
55083;DHT22;40978;52.850;6.506;2022-09-09T15:21:09;19.10;99.90
55083;DHT22;40978;52.850;6.506;2022-09-09T15:23:36;19.10;99.90
55083;DHT22;40978;52.850;6.506;2022-09-09T15:26:02;19.00;99.90
55083;DHT22;40978;52.850;6.506;2022-09-09T15:28:28;19.00;99.90
55083;DHT22;40978;52.850;6.506;2022-09-09T15:30:54;19.00;99.90
55083;DHT22;40978;52.850;6.506;2022-09-09T15:33:22;19.00;99.90
55083;DHT22;40978;52.850;6.506;2022-09-09T15:35:48;19.00;99.90
55083;DHT22;40978;52.850;6.506;2022-09-09T15:38:15;19.00;99.90
55083;DHT22;40978;52.850;6.506;2022-09-09T15:40:42;19.00;99.90
55083;DHT22;40978;52.850;6.506;2022-09-09T15:43:09;18.90;99.90
55083;DHT22;40978;52.850;6.506;2022-09-09T15:45:36;18.80;99.90
55083;DHT22;40978;52.850;6.506;2022-09-09T15:48:03;18.80;99.90
55083;DHT22;40978;52.850;6.506;2022-09-09T15:50:30;18.70;99.90
55083;DHT22;40978;52.850;6.506;2022-09-09T15:52:59;18.60;99.90
55083;DHT22;40978;52.850;6.506;2022-09-09T15:55:25;18.60;99.90
55083;DHT22;40978;52.850;6.506;2022-09-09T15:57:51;18.50;99.90
55083;DHT22;40978;52.850;6.506;2022-09-09T16:00:18;18.30;99.90
55083;DHT22;40978;52.850;6.506;2022-09-09T16:02:46;18.30;99.90
55083;DHT22;40978;52.850;6.506;2022-09-09T16:05:12;18.20;99.90
55083;DHT22;40978;52.850;6.506;2022-09-09T16:07:38;18.10;99.90
55083;DHT22;40978;52.850;6.506;2022-09-09T16:10:04;18.10;99.90
55083;DHT22;40978;52.850;6.506;2022-09-09T16:12:29;18.10;99.90
55083;DHT22;40978;52.850;6.506;2022-09-09T16:14:55;18.10;99.90
55083;DHT22;40978;52.850;6.506;2022-09-09T16:17:21;18.00;99.90
55083;DHT22;40978;52.850;6.506;2022-09-09T16:19:47;18.00;99.90
55083;DHT22;40978;52.850;6.506;2022-09-09T16:22:13;18.10;99.90
55083;DHT22;40978;52.850;6.506;2022-09-09T16:24:41;18.00;99.90
55083;DHT22;40978;52.850;6.506;2022-09-09T16:27:07;18.00;99.90
55083;DHT22;40978;52.850;6.506;2022-09-09T16:29:32;18.00;99.90
55083;DHT22;40978;52.850;6.506;2022-09-09T16:31:58;18.00;99.90
55083;DHT22;40978;52.850;6.506;2022-09-09T16:34:25;18.00;99.90
55083;DHT22;40978;52.850;6.506;2022-09-09T16:36:51;18.00;99.90
55083;DHT22;40978;52.850;6.506;2022-09-09T16:39:19;17.90;99.90
55083;DHT22;40978;52.850;6.506;2022-09-09T16:41:47;17.90;99.90
55083;DHT22;40978;52.850;6.506;2022-09-09T16:44:15;17.90;99.90
55083;DHT22;40978;52.850;6.506;2022-09-09T16:46:46;17.90;99.90
55083;DHT22;40978;52.850;6.506;2022-09-09T16:49:14;17.90;99.90
55083;DHT22;40978;52.850;6.506;2022-09-09T16:51:45;17.90;99.90
55083;DHT22;40978;52.850;6.506;2022-09-09T16:54:12;18.00;99.90
55083;DHT22;40978;52.850;6.506;2022-09-09T16:56:41;18.00;99.90
55083;DHT22;40978;52.850;6.506;2022-09-09T16:59:10;18.00;99.90
55083;DHT22;40978;52.850;6.506;2022-09-09T17:01:38;18.00;99.90
55083;DHT22;40978;52.850;6.506;2022-09-09T17:04:08;18.00;99.90
55083;DHT22;40978;52.850;6.506;2022-09-09T17:06:35;18.00;99.90
55083;DHT22;40978;52.850;6.506;2022-09-09T17:09:05;18.00;99.90
55083;DHT22;40978;52.850;6.506;2022-09-09T17:11:31;17.90;99.90
55083;DHT22;40978;52.850;6.506;2022-09-09T17:13:57;17.90;99.90
55083;DHT22;40978;52.850;6.506;2022-09-09T17:16:25;17.80;99.90
55083;DHT22;40978;52.850;6.506;2022-09-09T17:18:53;17.80;99.90
55083;DHT22;40978;52.850;6.506;2022-09-09T17:21:22;17.80;99.90
55083;DHT22;40978;52.850;6.506;2022-09-09T17:23:49;17.80;99.90
55083;DHT22;40978;52.850;6.506;2022-09-09T17:26:18;17.80;99.90
55083;DHT22;40978;52.850;6.506;2022-09-09T17:28:44;17.70;99.90
55083;DHT22;40978;52.850;6.506;2022-09-09T17:31:17;17.70;99.90
55083;DHT22;40978;52.850;6.506;2022-09-09T17:33:46;17.70;99.90
55083;DHT22;40978;52.850;6.506;2022-09-09T17:36:31;17.70;99.90
55083;DHT22;40978;52.850;6.506;2022-09-09T17:38:58;17.70;99.90
55083;DHT22;40978;52.850;6.506;2022-09-09T17:41:28;17.60;99.90
55083;DHT22;40978;52.850;6.506;2022-09-09T17:43:54;17.60;99.90
55083;DHT22;40978;52.850;6.506;2022-09-09T17:46:24;17.60;99.90
55083;DHT22;40978;52.850;6.506;2022-09-09T17:48:54;17.50;99.90
55083;DHT22;40978;52.850;6.506;2022-09-09T17:51:22;17.50;99.90
55083;DHT22;40978;52.850;6.506;2022-09-09T17:53:54;17.50;99.90
55083;DHT22;40978;52.850;6.506;2022-09-09T17:56:22;17.50;99.90
55083;DHT22;40978;52.850;6.506;2022-09-09T17:58:52;17.40;99.90
55083;DHT22;40978;52.850;6.506;2022-09-09T18:01:23;17.40;99.90
55083;DHT22;40978;52.850;6.506;2022-09-09T18:03:50;17.40;99.90
55083;DHT22;40978;52.850;6.506;2022-09-09T18:06:27;17.30;99.90
55083;DHT22;40978;52.850;6.506;2022-09-09T18:09:03;17.30;99.90